sensor_id;sensor_type;location;lat;lon;timestamp;pressure;altitude;pressure_sealevel;temperature;humidity
76627;BME280;65519;53.230;10.390;2023-02-01T00:01:26;100803.88;;;4.96;75.37
76627;BME280;65519;53.230;10.390;2023-02-01T00:03:52;100799.53;;;4.95;76.13
76627;BME280;65519;53.230;10.390;2023-02-01T00:06:17;100807.50;;;5.01;75.57
76627;BME280;65519;53.230;10.390;2023-02-01T00:08:43;100804.69;;;4.96;75.14
76627;BME280;65519;53.230;10.390;2023-02-01T00:11:10;100773.44;;;5.00;75.64
76627;BME280;65519;53.230;10.390;2023-02-01T00:13:38;100783.09;;;4.96;75.58
76627;BME280;65519;53.230;10.390;2023-02-01T00:18:29;100780.22;;;4.91;75.76
76627;BME280;65519;53.230;10.390;2023-02-01T00:20:54;100797.88;;;4.94;77.10
76627;BME280;65519;53.230;10.390;2023-02-01T00:23:20;100783.97;;;4.90;76.61
76627;BME280;65519;53.230;10.390;2023-02-01T00:25:45;100791.41;;;4.95;76.34
76627;BME280;65519;53.230;10.390;2023-02-01T00:28:10;100799.53;;;4.95;76.54
76627;BME280;65519;53.230;10.390;2023-02-01T00:30:38;100774.22;;;4.89;76.61
76627;BME280;65519;53.230;10.390;2023-02-01T00:33:03;100781.06;;;4.92;77.28
76627;BME280;65519;53.230;10.390;2023-02-01T00:35:29;100783.53;;;4.93;77.46
76627;BME280;65519;53.230;10.390;2023-02-01T00:37:54;100776.47;;;4.92;76.85
76627;BME280;65519;53.230;10.390;2023-02-01T00:40:19;100762.03;;;4.87;77.24
76627;BME280;65519;53.230;10.390;2023-02-01T00:42:45;100776.03;;;4.95;77.74
76627;BME280;65519;53.230;10.390;2023-02-01T00:45:11;100785.19;;;4.94;76.66
76627;BME280;65519;53.230;10.390;2023-02-01T00:47:36;100780.59;;;4.95;76.17
76627;BME280;65519;53.230;10.390;2023-02-01T00:50:02;100781.66;;;4.94;77.67
76627;BME280;65519;53.230;10.390;2023-02-01T00:52:27;100777.69;;;4.96;77.00
76627;BME280;65519;53.230;10.390;2023-02-01T00:54:52;100787.19;;;4.99;76.99
76627;BME280;65519;53.230;10.390;2023-02-01T00:57:18;100783.44;;;5.00;76.42
76627;BME280;65519;53.230;10.390;2023-02-01T00:59:43;100784.03;;;5.02;76.71
76627;BME280;65519;53.230;10.390;2023-02-01T01:02:08;100779.44;;;5.02;76.72
76627;BME280;65519;53.230;10.390;2023-02-01T01:04:35;100769.69;;;5.01;76.83
76627;BME280;65519;53.230;10.390;2023-02-01T01:07:01;100757.16;;;5.07;76.85
76627;BME280;65519;53.230;10.390;2023-02-01T01:09:26;100769.34;;;5.09;76.77
76627;BME280;65519;53.230;10.390;2023-02-01T01:11:52;100767.13;;;5.06;76.67
76627;BME280;65519;53.230;10.390;2023-02-01T01:14:18;100767.25;;;5.11;76.06
76627;BME280;65519;53.230;10.390;2023-02-01T01:16:43;100762.06;;;5.10;76.70
76627;BME280;65519;53.230;10.390;2023-02-01T01:19:08;100759.59;;;5.08;77.30
76627;BME280;65519;53.230;10.390;2023-02-01T01:21:34;100765.16;;;5.13;76.02
76627;BME280;65519;53.230;10.390;2023-02-01T01:24:00;100762.00;;;5.17;76.40
76627;BME280;65519;53.230;10.390;2023-02-01T01:26:27;100754.47;;;5.19;76.31
76627;BME280;65519;53.230;10.390;2023-02-01T01:28:57;100756.94;;;5.20;76.76
76627;BME280;65519;53.230;10.390;2023-02-01T01:31:24;100757.19;;;5.19;76.87
76627;BME280;65519;53.230;10.390;2023-02-01T01:33:52;100756.94;;;5.20;76.04
76627;BME280;65519;53.230;10.390;2023-02-01T01:36:18;100748.97;;;5.25;75.86
76627;BME280;65519;53.230;10.390;2023-02-01T01:38:44;100744.84;;;5.23;75.67
76627;BME280;65519;53.230;10.390;2023-02-01T01:41:14;100746.72;;;5.22;76.34
76627;BME280;65519;53.230;10.390;2023-02-01T01:44:06;100737.31;;;5.25;75.85
76627;BME280;65519;53.230;10.390;2023-02-01T01:46:35;100735.69;;;5.24;76.41
76627;BME280;65519;53.230;10.390;2023-02-01T01:49:11;100733.19;;;5.22;75.98
76627;BME280;65519;53.230;10.390;2023-02-01T01:51:45;100735.69;;;5.24;76.08
76627;BME280;65519;53.230;10.390;2023-02-01T01:56:49;100716.66;;;5.19;75.85
76627;BME280;65519;53.230;10.390;2023-02-01T01:59:16;100717.00;;;5.22;76.49
76627;BME280;65519;53.230;10.390;2023-02-01T02:01:42;100705.47;;;5.15;76.23
76627;BME280;65519;53.230;10.390;2023-02-01T02:04:07;100702.53;;;5.17;77.10
76627;BME280;65519;53.230;10.390;2023-02-01T02:06:47;100698.19;;;5.16;76.68
76627;BME280;65519;53.230;10.390;2023-02-01T02:09:15;100685.13;;;5.12;76.84
76627;BME280;65519;53.230;10.390;2023-02-01T02:11:41;100691.97;;;5.15;77.20
76627;BME280;65519;53.230;10.390;2023-02-01T02:14:09;100683.50;;;5.11;76.97
76627;BME280;65519;53.230;10.390;2023-02-01T02:16:58;100651.88;;;5.12;76.68
76627;BME280;65519;53.230;10.390;2023-02-01T02:22:31;100688.31;;;5.21;75.96
76627;BME280;65519;53.230;10.390;2023-02-01T02:36:55;100655.41;;;5.24;76.14
76627;BME280;65519;53.230;10.390;2023-02-01T02:42:50;100636.75;;;5.23;76.43
76627;BME280;65519;53.230;10.390;2023-02-01T02:45:51;100653.41;;;5.20;77.29
76627;BME280;65519;53.230;10.390;2023-02-01T02:51:15;100632.97;;;5.24;76.62
76627;BME280;65519;53.230;10.390;2023-02-01T02:54:11;100637.31;;;5.25;76.55
76627;BME280;65519;53.230;10.390;2023-02-01T02:56:57;100626.50;;;5.13;76.25
76627;BME280;65519;53.230;10.390;2023-02-01T02:59:44;100641.81;;;5.19;76.81
76627;BME280;65519;53.230;10.390;2023-02-01T03:02:30;100638.84;;;5.21;76.60
76627;BME280;65519;53.230;10.390;2023-02-01T03:05:14;100628.53;;;5.18;78.53
76627;BME280;65519;53.230;10.390;2023-02-01T03:10:21;100629.81;;;5.03;78.56
76627;BME280;65519;53.230;10.390;2023-02-01T03:12:49;100638.63;;;5.10;79.50
76627;BME280;65519;53.230;10.390;2023-02-01T03:15:30;100626.97;;;5.10;78.82
76627;BME280;65519;53.230;10.390;2023-02-01T03:18:01;100631.09;;;5.12;78.80
76627;BME280;65519;53.230;10.390;2023-02-01T03:20:29;100622.28;;;5.05;79.15
76627;BME280;65519;53.230;10.390;2023-02-01T03:22:55;100620.75;;;5.09;77.72
76627;BME280;65519;53.230;10.390;2023-02-01T03:25:25;100614.66;;;5.02;78.70
76627;BME280;65519;53.230;10.390;2023-02-01T03:27:56;100606.69;;;5.07;77.67
76627;BME280;65519;53.230;10.390;2023-02-01T03:30:28;100619.38;;;5.07;77.98
76627;BME280;65519;53.230;10.390;2023-02-01T03:32:58;100612.91;;;5.08;77.92
76627;BME280;65519;53.230;10.390;2023-02-01T03:35:29;100627.94;;;5.04;78.51
76627;BME280;65519;53.230;10.390;2023-02-01T03:38:01;100620.41;;;4.94;78.78
76627;BME280;65519;53.230;10.390;2023-02-01T03:40:32;100612.97;;;4.78;80.92
76627;BME280;65519;53.230;10.390;2023-02-01T03:43:01;100595.38;;;4.64;81.10
76627;BME280;65519;53.230;10.390;2023-02-01T03:45:34;100601.03;;;4.74;81.78
76627;BME280;65519;53.230;10.390;2023-02-01T03:48:02;100605.81;;;4.72;82.14
76627;BME280;65519;53.230;10.390;2023-02-01T03:50:29;100606.72;;;4.66;83.13
76627;BME280;65519;53.230;10.390;2023-02-01T03:55:25;100631.16;;;4.59;83.94
76627;BME280;65519;53.230;10.390;2023-02-01T03:58:09;100630.50;;;4.46;83.31
76627;BME280;65519;53.230;10.390;2023-02-01T04:00:37;100648.09;;;4.36;83.94
76627;BME280;65519;53.230;10.390;2023-02-01T04:03:04;100651.72;;;4.30;84.28
76627;BME280;65519;53.230;10.390;2023-02-01T04:05:31;100631.25;;;4.23;84.13
76627;BME280;65519;53.230;10.390;2023-02-01T04:07:57;100630.22;;;3.76;85.65
76627;BME280;65519;53.230;10.390;2023-02-01T04:10:22;100608.06;;;3.55;85.57
76627;BME280;65519;53.230;10.390;2023-02-01T04:12:48;100608.06;;;3.55;85.01
76627;BME280;65519;53.230;10.390;2023-02-01T04:15:13;100599.25;;;3.66;84.41
76627;BME280;65519;53.230;10.390;2023-02-01T04:17:39;100591.00;;;3.61;84.98
76627;BME280;65519;53.230;10.390;2023-02-01T04:20:05;100595.41;;;3.74;84.03
76627;BME280;65519;53.230;10.390;2023-02-01T04:22:31;100592.84;;;3.79;84.11
76627;BME280;65519;53.230;10.390;2023-02-01T04:24:56;100587.59;;;3.84;83.90
76627;BME280;65519;53.230;10.390;2023-02-01T04:27:21;100589.56;;;3.77;84.06
76627;BME280;65519;53.230;10.390;2023-02-01T04:29:47;100587.97;;;3.88;84.83
76627;BME280;65519;53.230;10.390;2023-02-01T04:32:15;100583.63;;;3.87;86.16
76627;BME280;65519;53.230;10.390;2023-02-01T04:34:41;100570.16;;;3.87;85.28
76627;BME280;65519;53.230;10.390;2023-02-01T04:37:06;100577.75;;;3.90;84.78
76627;BME280;65519;53.230;10.390;2023-02-01T04:39:32;100584.06;;;3.84;84.71
76627;BME280;65519;53.230;10.390;2023-02-01T04:41:57;100577.97;;;3.77;84.74
76627;BME280;65519;53.230;10.390;2023-02-01T04:44:23;100585.34;;;3.81;84.98
76627;BME280;65519;53.230;10.390;2023-02-01T04:46:48;100574.16;;;3.66;84.90
76627;BME280;65519;53.230;10.390;2023-02-01T04:49:14;100567.16;;;3.77;85.77
76627;BME280;65519;53.230;10.390;2023-02-01T04:51:40;100577.63;;;3.85;85.58
76627;BME280;65519;53.230;10.390;2023-02-01T04:54:06;100561.69;;;3.83;85.84
76627;BME280;65519;53.230;10.390;2023-02-01T04:56:32;100577.03;;;3.83;85.63
76627;BME280;65519;53.230;10.390;2023-02-01T04:58:58;100566.03;;;3.84;86.29
76627;BME280;65519;53.230;10.390;2023-02-01T05:01:24;100562.81;;;3.76;86.23
76627;BME280;65519;53.230;10.390;2023-02-01T05:03:52;100570.31;;;3.74;86.38
76627;BME280;65519;53.230;10.390;2023-02-01T05:06:17;100562.66;;;3.71;86.78
76627;BME280;65519;53.230;10.390;2023-02-01T05:08:43;100560.13;;;3.76;86.47
76627;BME280;65519;53.230;10.390;2023-02-01T05:11:08;100566.78;;;3.73;86.49
76627;BME280;65519;53.230;10.390;2023-02-01T05:13:53;100573.56;;;3.64;86.78
76627;BME280;65519;53.230;10.390;2023-02-01T05:16:19;100578.94;;;3.64;86.22
76627;BME280;65519;53.230;10.390;2023-02-01T05:18:45;100585.47;;;3.56;86.88
76627;BME280;65519;53.230;10.390;2023-02-01T05:21:10;100545.88;;;3.39;87.47
76627;BME280;65519;53.230;10.390;2023-02-01T05:23:35;100566.06;;;3.48;88.15
76627;BME280;65519;53.230;10.390;2023-02-01T05:26:20;100562.84;;;3.39;86.67
76627;BME280;65519;53.230;10.390;2023-02-01T05:28:45;100548.19;;;3.35;86.03
76627;BME280;65519;53.230;10.390;2023-02-01T05:31:11;100539.34;;;3.28;87.25
76627;BME280;65519;53.230;10.390;2023-02-01T05:33:37;100534.56;;;3.48;87.16
76627;BME280;65519;53.230;10.390;2023-02-01T05:36:02;100545.91;;;3.68;86.85
76627;BME280;65519;53.230;10.390;2023-02-01T05:38:28;100542.75;;;3.72;86.70
76627;BME280;65519;53.230;10.390;2023-02-01T05:40:55;100561.06;;;3.51;87.53
76627;BME280;65519;53.230;10.390;2023-02-01T05:43:21;100574.00;;;3.61;87.21
76627;BME280;65519;53.230;10.390;2023-02-01T05:45:46;100582.31;;;3.41;87.25
76627;BME280;65519;53.230;10.390;2023-02-01T05:48:11;100590.41;;;3.41;87.91
76627;BME280;65519;53.230;10.390;2023-02-01T05:50:37;100586.50;;;3.19;87.02
76627;BME280;65519;53.230;10.390;2023-02-01T05:53:02;100589.78;;;3.21;87.49
76627;BME280;65519;53.230;10.390;2023-02-01T05:55:28;100574.38;;;3.10;87.20
76627;BME280;65519;53.230;10.390;2023-02-01T05:57:53;100551.47;;;3.19;86.96
76627;BME280;65519;53.230;10.390;2023-02-01T06:00:19;100559.88;;;3.11;86.81
76627;BME280;65519;53.230;10.390;2023-02-01T06:02:44;100554.44;;;2.92;86.90
76627;BME280;65519;53.230;10.390;2023-02-01T06:05:09;100558.72;;;3.00;87.49
76627;BME280;65519;53.230;10.390;2023-02-01T06:07:35;100559.66;;;3.12;87.85
76627;BME280;65519;53.230;10.390;2023-02-01T06:10:00;100559.69;;;3.06;87.29
76627;BME280;65519;53.230;10.390;2023-02-01T06:12:25;100562.16;;;2.89;86.93
76627;BME280;65519;53.230;10.390;2023-02-01T06:14:53;100553.97;;;2.77;88.02
76627;BME280;65519;53.230;10.390;2023-02-01T06:17:18;100554.09;;;2.64;88.72
76627;BME280;65519;53.230;10.390;2023-02-01T06:19:43;100574.25;;;2.55;88.54
76627;BME280;65519;53.230;10.390;2023-02-01T06:22:10;100571.84;;;2.47;88.38
76627;BME280;65519;53.230;10.390;2023-02-01T06:24:35;100584.69;;;2.45;88.17
76627;BME280;65519;53.230;10.390;2023-02-01T06:27:00;100589.28;;;2.38;88.34
76627;BME280;65519;53.230;10.390;2023-02-01T06:29:26;100580.22;;;2.32;87.89
76627;BME280;65519;53.230;10.390;2023-02-01T06:31:51;100576.75;;;2.25;87.92
76627;BME280;65519;53.230;10.390;2023-02-01T06:34:17;100557.19;;;2.11;88.37
76627;BME280;65519;53.230;10.390;2023-02-01T06:36:43;100563.78;;;2.15;87.66
76627;BME280;65519;53.230;10.390;2023-02-01T06:39:08;100562.91;;;2.22;88.22
76627;BME280;65519;53.230;10.390;2023-02-01T06:41:34;100551.19;;;2.09;87.89
76627;BME280;65519;53.230;10.390;2023-02-01T06:44:00;100548.84;;;2.19;88.45
76627;BME280;65519;53.230;10.390;2023-02-01T06:46:25;100562.91;;;2.22;88.47
76627;BME280;65519;53.230;10.390;2023-02-01T06:48:51;100553.19;;;2.20;88.60
76627;BME280;65519;53.230;10.390;2023-02-01T06:51:26;100545.56;;;2.17;88.71
76627;BME280;65519;53.230;10.390;2023-02-01T06:53:53;100547.19;;;2.25;88.38
76627;BME280;65519;53.230;10.390;2023-02-01T06:56:19;100551.94;;;2.23;88.59
76627;BME280;65519;53.230;10.390;2023-02-01T06:58:45;100563.66;;;2.35;88.65
76627;BME280;65519;53.230;10.390;2023-02-01T07:01:11;100581.38;;;2.43;88.83
76627;BME280;65519;53.230;10.390;2023-02-01T07:03:37;100579.91;;;2.47;89.23
76627;BME280;65519;53.230;10.390;2023-02-01T07:06:03;100588.97;;;2.52;88.57
76627;BME280;65519;53.230;10.390;2023-02-01T07:08:31;100583.56;;;2.59;89.32
76627;BME280;65519;53.230;10.390;2023-02-01T07:11:01;100578.75;;;2.61;89.34
76627;BME280;65519;53.230;10.390;2023-02-01T07:13:26;100569.19;;;2.65;89.75
76627;BME280;65519;53.230;10.390;2023-02-01T07:15:52;100577.44;;;2.70;89.31
76627;BME280;65519;53.230;10.390;2023-02-01T07:18:17;100580.19;;;2.88;89.34
76627;BME280;65519;53.230;10.390;2023-02-01T07:20:43;100574.78;;;2.88;88.92
76627;BME280;65519;53.230;10.390;2023-02-01T07:23:11;100575.97;;;2.92;89.10
76627;BME280;65519;53.230;10.390;2023-02-01T07:25:37;100558.94;;;2.99;88.97
76627;BME280;65519;53.230;10.390;2023-02-01T07:28:02;100555.25;;;2.93;89.36
76627;BME280;65519;53.230;10.390;2023-02-01T07:30:28;100562.59;;;3.04;89.31
76627;BME280;65519;53.230;10.390;2023-02-01T07:32:53;100558.66;;;3.07;89.76
76627;BME280;65519;53.230;10.390;2023-02-01T07:35:18;100565.38;;;3.16;89.23
76627;BME280;65519;53.230;10.390;2023-02-01T07:37:44;100561.00;;;3.21;89.40
76627;BME280;65519;53.230;10.390;2023-02-01T07:40:10;100558.22;;;3.28;89.47
76627;BME280;65519;53.230;10.390;2023-02-01T07:42:35;100542.06;;;3.28;89.35
76627;BME280;65519;53.230;10.390;2023-02-01T07:45:01;100546.56;;;3.34;89.81
76627;BME280;65519;53.230;10.390;2023-02-01T07:47:27;100558.19;;;3.46;89.97
76627;BME280;65519;53.230;10.390;2023-02-01T07:49:53;100550.56;;;3.61;88.94
76627;BME280;65519;53.230;10.390;2023-02-01T07:52:18;100560.81;;;3.71;89.10
76627;BME280;65519;53.230;10.390;2023-02-01T07:54:43;100547.91;;;3.73;88.56
76627;BME280;65519;53.230;10.390;2023-02-01T07:57:09;100557.78;;;3.79;88.44
76627;BME280;65519;53.230;10.390;2023-02-01T07:59:36;100553.69;;;3.77;89.64
76627;BME280;65519;53.230;10.390;2023-02-01T08:02:22;100551.13;;;3.82;88.29
76627;BME280;65519;53.230;10.390;2023-02-01T08:04:47;100566.97;;;3.90;88.36
76627;BME280;65519;53.230;10.390;2023-02-01T08:07:13;100561.56;;;3.90;88.43
76627;BME280;65519;53.230;10.390;2023-02-01T08:09:38;100554.47;;;3.95;88.52
76627;BME280;65519;53.230;10.390;2023-02-01T08:12:04;100538.88;;;3.97;88.88
76627;BME280;65519;53.230;10.390;2023-02-01T08:14:29;100544.63;;;4.01;88.32
76627;BME280;65519;53.230;10.390;2023-02-01T08:16:54;100538.69;;;4.11;87.77
76627;BME280;65519;53.230;10.390;2023-02-01T08:19:20;100549.59;;;4.16;87.30
76627;BME280;65519;53.230;10.390;2023-02-01T08:21:45;100554.44;;;4.25;86.44
76627;BME280;65519;53.230;10.390;2023-02-01T08:24:13;100544.72;;;4.36;86.40
76627;BME280;65519;53.230;10.390;2023-02-01T08:26:39;100548.84;;;4.38;85.11
76627;BME280;65519;53.230;10.390;2023-02-01T08:29:06;100555.16;;;4.44;85.85
76627;BME280;65519;53.230;10.390;2023-02-01T08:31:33;100560.13;;;4.47;85.41
76627;BME280;65519;53.230;10.390;2023-02-01T08:34:00;100552.00;;;4.47;85.77
76627;BME280;65519;53.230;10.390;2023-02-01T08:36:28;100551.94;;;4.54;85.09
76627;BME280;65519;53.230;10.390;2023-02-01T08:38:54;100562.72;;;4.54;84.85
76627;BME280;65519;53.230;10.390;2023-02-01T08:41:23;100559.31;;;4.58;85.00
76627;BME280;65519;53.230;10.390;2023-02-01T08:43:48;100575.41;;;4.65;85.69
76627;BME280;65519;53.230;10.390;2023-02-01T08:46:15;100554.16;;;4.68;84.98
76627;BME280;65519;53.230;10.390;2023-02-01T08:48:41;100570.50;;;4.73;84.78
76627;BME280;65519;53.230;10.390;2023-02-01T08:51:09;100559.09;;;4.83;84.51
76627;BME280;65519;53.230;10.390;2023-02-01T08:53:36;100558.06;;;4.84;84.20
76627;BME280;65519;53.230;10.390;2023-02-01T08:56:03;100572.03;;;4.93;84.17
76627;BME280;65519;53.230;10.390;2023-02-01T08:58:29;100559.78;;;5.02;83.66
76627;BME280;65519;53.230;10.390;2023-02-01T09:00:54;100567.31;;;5.11;83.95
76627;BME280;65519;53.230;10.390;2023-02-01T09:03:20;100567.53;;;5.22;83.32
76627;BME280;65519;53.230;10.390;2023-02-01T09:05:45;100550.84;;;5.25;83.18
76627;BME280;65519;53.230;10.390;2023-02-01T09:08:11;100553.41;;;5.31;83.07
76627;BME280;65519;53.230;10.390;2023-02-01T09:10:41;100561.06;;;5.23;83.54
76627;BME280;65519;53.230;10.390;2023-02-01T09:13:08;100539.44;;;5.34;82.21
76627;BME280;65519;53.230;10.390;2023-02-01T09:15:34;100540.75;;;5.20;81.86
76627;BME280;65519;53.230;10.390;2023-02-01T09:17:59;100539.69;;;5.09;82.17
76627;BME280;65519;53.230;10.390;2023-02-01T09:20:25;100556.28;;;5.13;83.23
76627;BME280;65519;53.230;10.390;2023-02-01T09:22:51;100565.34;;;5.07;83.68
76627;BME280;65519;53.230;10.390;2023-02-01T09:25:17;100558.34;;;5.34;82.59
76627;BME280;65519;53.230;10.390;2023-02-01T09:27:42;100560.03;;;5.12;83.78
76627;BME280;65519;53.230;10.390;2023-02-01T09:30:08;100557.69;;;5.16;83.26
76627;BME280;65519;53.230;10.390;2023-02-01T09:32:35;100544.03;;;5.22;83.08
76627;BME280;65519;53.230;10.390;2023-02-01T09:35:00;100564.59;;;5.35;82.53
76627;BME280;65519;53.230;10.390;2023-02-01T09:37:26;100559.50;;;5.50;82.33
76627;BME280;65519;53.230;10.390;2023-02-01T09:39:51;100561.84;;;5.58;82.14
76627;BME280;65519;53.230;10.390;2023-02-01T09:42:55;100557.28;;;5.75;81.36
76627;BME280;65519;53.230;10.390;2023-02-01T09:47:59;100561.66;;;5.76;79.16
76627;BME280;65519;53.230;10.390;2023-02-01T09:50:36;100557.41;;;5.92;79.59
76627;BME280;65519;53.230;10.390;2023-02-01T09:53:13;100537.94;;;5.95;78.36
76627;BME280;65519;53.230;10.390;2023-02-01T09:55:43;100562.72;;;6.15;78.62
76627;BME280;65519;53.230;10.390;2023-02-01T09:58:20;100578.78;;;6.22;77.56
76627;BME280;65519;53.230;10.390;2023-02-01T10:00:52;100570.78;;;5.99;77.93
76627;BME280;65519;53.230;10.390;2023-02-01T10:03:19;100586.81;;;5.89;78.05
76627;BME280;65519;53.230;10.390;2023-02-01T10:17:16;100580.88;;;6.65;77.38
76627;BME280;65519;53.230;10.390;2023-02-01T10:20:16;100559.28;;;5.80;79.89
76627;BME280;65519;53.230;10.390;2023-02-01T10:22:45;100585.66;;;5.73;81.15
76627;BME280;65519;53.230;10.390;2023-02-01T10:27:53;100596.00;;;5.64;81.09
76627;BME280;65519;53.230;10.390;2023-02-01T10:30:22;100564.97;;;5.67;81.69
76627;BME280;65519;53.230;10.390;2023-02-01T10:32:54;100577.09;;;5.64;81.42
76627;BME280;65519;53.230;10.390;2023-02-01T10:35:30;100562.63;;;5.70;81.23
76627;BME280;65519;53.230;10.390;2023-02-01T10:38:01;100576.72;;;5.72;81.32
76627;BME280;65519;53.230;10.390;2023-02-01T10:40:28;100568.84;;;5.71;80.87
76627;BME280;65519;53.230;10.390;2023-02-01T10:42:57;100578.94;;;5.75;80.96
76627;BME280;65519;53.230;10.390;2023-02-01T10:45:26;100572.84;;;5.68;81.66
76627;BME280;65519;53.230;10.390;2023-02-01T10:47:54;100569.31;;;5.68;82.46
76627;BME280;65519;53.230;10.390;2023-02-01T10:53:04;100538.72;;;5.79;80.68
76627;BME280;65519;53.230;10.390;2023-02-01T10:55:46;100544.78;;;5.86;81.01
76627;BME280;65519;53.230;10.390;2023-02-01T10:58:20;100534.09;;;5.91;79.98
76627;BME280;65519;53.230;10.390;2023-02-01T11:00:52;100528.94;;;5.90;79.77
76627;BME280;65519;53.230;10.390;2023-02-01T11:05:46;100511.66;;;5.91;79.74
76627;BME280;65519;53.230;10.390;2023-02-01T11:08:16;100505.19;;;5.92;79.02
76627;BME280;65519;53.230;10.390;2023-02-01T11:10:42;100506.31;;;5.96;79.38
76627;BME280;65519;53.230;10.390;2023-02-01T11:13:17;100490.00;;;5.91;79.74
76627;BME280;65519;53.230;10.390;2023-02-01T11:15:54;100482.81;;;5.84;79.35
76627;BME280;65519;53.230;10.390;2023-02-01T11:18:27;100495.78;;;5.82;79.63
76627;BME280;65519;53.230;10.390;2023-02-01T11:20:53;100490.13;;;5.84;80.06
76627;BME280;65519;53.230;10.390;2023-02-01T11:23:23;100474.69;;;5.84;79.71
76627;BME280;65519;53.230;10.390;2023-02-01T11:25:55;100465.19;;;5.94;79.97
76627;BME280;65519;53.230;10.390;2023-02-01T11:28:26;100474.13;;;5.82;79.84
76627;BME280;65519;53.230;10.390;2023-02-01T11:30:54;100475.28;;;5.86;80.46
76627;BME280;65519;53.230;10.390;2023-02-01T11:33:25;100470.47;;;5.89;79.59
76627;BME280;65519;53.230;10.390;2023-02-01T11:35:56;100467.91;;;5.82;79.73
76627;BME280;65519;53.230;10.390;2023-02-01T11:40:54;100450.84;;;5.81;79.82
76627;BME280;65519;53.230;10.390;2023-02-01T11:45:58;100450.19;;;6.03;79.67
76627;BME280;65519;53.230;10.390;2023-02-01T11:48:26;100450.50;;;6.23;79.42
76627;BME280;65519;53.230;10.390;2023-02-01T11:53:38;100448.38;;;5.92;80.54
76627;BME280;65519;53.230;10.390;2023-02-01T11:56:15;100429.88;;;5.72;81.36
76627;BME280;65519;53.230;10.390;2023-02-01T12:01:32;100426.41;;;5.60;81.18
76627;BME280;65519;53.230;10.390;2023-02-01T12:18:08;100402.13;;;5.48;81.18
76627;BME280;65519;53.230;10.390;2023-02-01T12:31:38;100411.16;;;4.85;82.96
76627;BME280;65519;53.230;10.390;2023-02-01T12:36:50;100405.19;;;4.71;84.04
76627;BME280;65519;53.230;10.390;2023-02-01T12:39:40;100402.72;;;4.58;84.73
76627;BME280;65519;53.230;10.390;2023-02-01T12:47:45;100393.00;;;4.22;85.66
76627;BME280;65519;53.230;10.390;2023-02-01T12:50:19;100389.97;;;4.07;85.61
76627;BME280;65519;53.230;10.390;2023-02-01T12:52:48;100399.69;;;3.96;85.62
76627;BME280;65519;53.230;10.390;2023-02-01T12:58:11;100403.56;;;3.89;86.43
76627;BME280;65519;53.230;10.390;2023-02-01T13:00:49;100403.44;;;3.84;87.50
76627;BME280;65519;53.230;10.390;2023-02-01T13:08:53;100420.41;;;3.73;85.77
76627;BME280;65519;53.230;10.390;2023-02-01T13:11:33;100402.28;;;3.50;86.48
76627;BME280;65519;53.230;10.390;2023-02-01T13:14:10;100433.13;;;3.54;86.06
76627;BME280;65519;53.230;10.390;2023-02-01T13:16:42;100418.41;;;3.38;86.66
76627;BME280;65519;53.230;10.390;2023-02-01T13:19:41;100418.69;;;3.48;85.83
76627;BME280;65519;53.230;10.390;2023-02-01T13:22:16;100364.16;;;3.05;86.36
76627;BME280;65519;53.230;10.390;2023-02-01T13:27:11;100376.06;;;2.97;86.92
76627;BME280;65519;53.230;10.390;2023-02-01T13:29:51;100402.97;;;3.15;85.75
76627;BME280;65519;53.230;10.390;2023-02-01T13:43:02;100423.78;;;3.38;85.83
76627;BME280;65519;53.230;10.390;2023-02-01T13:45:33;100406.09;;;3.30;86.06
76627;BME280;65519;53.230;10.390;2023-02-01T13:48:03;100413.56;;;3.28;86.50
76627;BME280;65519;53.230;10.390;2023-02-01T13:50:37;100405.75;;;3.39;86.32
76627;BME280;65519;53.230;10.390;2023-02-01T13:55:50;100394.84;;;3.34;85.68
76627;BME280;65519;53.230;10.390;2023-02-01T13:58:39;100401.53;;;6.08;76.18
76627;BME280;65519;53.230;10.390;2023-02-01T14:03:56;100399.47;;;4.33;81.59
76627;BME280;65519;53.230;10.390;2023-02-01T14:17:29;100392.97;;;3.76;83.15
76627;BME280;65519;53.230;10.390;2023-02-01T14:23:01;100407.84;;;3.66;83.77
76627;BME280;65519;53.230;10.390;2023-02-01T14:25:32;100413.59;;;3.70;83.32
76627;BME280;65519;53.230;10.390;2023-02-01T14:27:58;100410.81;;;3.77;83.73
76627;BME280;65519;53.230;10.390;2023-02-01T14:30:24;100413.81;;;3.68;83.62
76627;BME280;65519;53.230;10.390;2023-02-01T14:32:49;100420.75;;;3.76;83.62
76627;BME280;65519;53.230;10.390;2023-02-01T14:35:24;100425.78;;;3.73;83.83
76627;BME280;65519;53.230;10.390;2023-02-01T14:37:52;100409.34;;;3.62;83.82
76627;BME280;65519;53.230;10.390;2023-02-01T14:40:27;100420.06;;;3.92;82.82
76627;BME280;65519;53.230;10.390;2023-02-01T14:42:54;100414.94;;;4.14;83.30
76627;BME280;65519;53.230;10.390;2023-02-01T14:58:51;100433.53;;;3.81;83.70
76627;BME280;65519;53.230;10.390;2023-02-01T15:01:28;100435.88;;;3.77;85.22
76627;BME280;65519;53.230;10.390;2023-02-01T15:06:42;100477.22;;;3.71;86.85
76627;BME280;65519;53.230;10.390;2023-02-01T15:09:28;100468.09;;;3.42;86.44
76627;BME280;65519;53.230;10.390;2023-02-01T15:17:36;100507.53;;;3.37;87.50
76627;BME280;65519;53.230;10.390;2023-02-01T15:22:35;100495.50;;;3.39;87.09
76627;BME280;65519;53.230;10.390;2023-02-01T15:25:01;100499.50;;;3.48;87.25
76627;BME280;65519;53.230;10.390;2023-02-01T15:27:27;100498.34;;;3.44;87.54
76627;BME280;65519;53.230;10.390;2023-02-01T15:29:53;100484.94;;;3.38;87.42
76627;BME280;65519;53.230;10.390;2023-02-01T15:32:34;100486.81;;;3.37;87.71
76627;BME280;65519;53.230;10.390;2023-02-01T15:35:03;100493.03;;;3.38;87.74
76627;BME280;65519;53.230;10.390;2023-02-01T15:37:29;100493.84;;;3.38;87.29
76627;BME280;65519;53.230;10.390;2023-02-01T15:40:19;100501.72;;;3.40;87.06
76627;BME280;65519;53.230;10.390;2023-02-01T15:43:11;100486.38;;;3.40;86.77